createdAt,value
2018-02-23T00:00:29.883Z,81.51
2018-02-23T00:01:29.886Z,82.35
2018-02-23T00:02:29.722Z,81.70
2018-02-23T00:03:29.639Z,82.64
2018-02-23T00:04:29.577Z,82.07
2018-02-23T00:05:29.488Z,81.70
2018-02-23T00:06:29.390Z,82.73
2018-02-23T00:07:29.307Z,82.83
2018-02-23T00:08:29.229Z,83.11
2018-02-23T00:09:29.137Z,83.78
2018-02-23T00:10:29.063Z,83.59
2018-02-23T00:11:28.983Z,83.78
2018-02-23T00:12:28.885Z,83.78
2018-02-23T00:13:28.805Z,84.25
2018-02-23T00:14:28.711Z,84.53
2018-02-23T00:15:28.656Z,85.38
2018-02-23T00:16:28.546Z,84.53
2018-02-23T00:17:28.485Z,83.97
2018-02-23T00:18:28.421Z,83.02
2018-02-23T00:19:28.303Z,82.92
2018-02-23T00:20:28.228Z,83.11
2018-02-23T00:21:28.746Z,83.59
2018-02-23T00:22:28.039Z,83.49
2018-02-23T00:23:27.974Z,83.49
2018-02-23T00:24:27.868Z,84.25
2018-02-23T00:25:27.823Z,84.53
2018-02-23T00:26:27.705Z,84.77
2018-02-23T00:27:27.627Z,84.77
2018-02-23T00:28:27.530Z,84.96
2018-02-23T00:29:27.464Z,85.43
2018-02-23T00:30:27.387Z,85.76
2018-02-23T00:31:27.283Z,85.62
2018-02-23T00:32:27.191Z,85.05
2018-02-23T00:33:27.125Z,85.38
2018-02-23T00:34:27.023Z,85.15
2018-02-23T00:35:26.952Z,85.72
2018-02-23T00:36:26.878Z,86.42
2018-02-23T00:37:26.968Z,86.23
2018-02-23T00:38:26.693Z,86.23
2018-02-23T00:39:26.625Z,86.14
2018-02-23T00:40:26.523Z,85.38
2018-02-23T00:41:26.460Z,85.66
2018-02-23T00:42:26.352Z,85.76
2018-02-23T00:43:26.277Z,85.10
2018-02-23T00:44:26.176Z,85.47
2018-02-23T00:45:26.136Z,86.33
2018-02-23T00:46:26.045Z,85.76
2018-02-23T00:47:25.948Z,85.66
2018-02-23T00:48:25.938Z,85.19
2018-02-23T00:49:25.770Z,85.95
2018-02-23T00:50:25.683Z,86.04
2018-02-23T00:51:25.605Z,85.76
2018-02-23T00:52:25.526Z,86.33
2018-02-23T00:53:25.433Z,85.57
2018-02-23T00:54:25.333Z,86.04
2018-02-23T00:55:25.274Z,86.23
2018-02-23T00:56:25.173Z,86.04
2018-02-23T00:57:25.113Z,86.04
2018-02-23T00:58:25.019Z,86.14
2018-02-23T00:59:24.936Z,86.14
2018-02-23T01:00:24.832Z,86.04
2018-02-23T01:01:24.766Z,86.23
2018-02-23T01:02:24.691Z,86.99
2018-02-23T01:03:24.593Z,85.85
2018-02-23T01:04:24.495Z,85.66
2018-02-23T01:05:24.439Z,86.14
2018-02-23T01:06:24.327Z,85.95
2018-02-23T01:07:24.255Z,86.04
2018-02-23T01:08:24.197Z,86.04
2018-02-23T01:09:24.081Z,86.14
2018-02-23T01:10:23.990Z,85.85
2018-02-23T01:11:23.913Z,86.23
2018-02-23T01:12:23.852Z,85.95
2018-02-23T01:13:23.760Z,86.57
2018-02-23T01:14:23.692Z,87.08
2018-02-23T01:15:23.578Z,86.99
2018-02-23T01:16:23.481Z,86.66
2018-02-23T01:17:23.419Z,86.80
2018-02-23T01:18:23.373Z,86.94
2018-02-23T01:19:23.255Z,87.46
2018-02-23T01:20:23.153Z,86.99
2018-02-23T01:21:23.103Z,86.85
2018-02-23T01:22:22.987Z,87.08
2018-02-23T01:23:22.933Z,87.74
2018-02-23T01:24:22.807Z,87.08
2018-02-23T01:25:22.734Z,87.13
2018-02-23T01:26:22.639Z,86.99
2018-02-23T01:27:22.564Z,86.85
2018-02-23T01:28:22.489Z,87.23
2018-02-23T01:29:22.409Z,87.51
2018-02-23T01:30:22.309Z,87.89
2018-02-23T01:31:22.247Z,88.22
2018-02-23T01:32:22.133Z,87.51
2018-02-23T01:33:22.083Z,87.42
2018-02-23T01:34:21.977Z,87.70
2018-02-23T01:35:21.899Z,87.89
2018-02-23T01:36:21.796Z,87.89
2018-02-23T01:37:21.729Z,87.70
2018-02-23T01:38:21.713Z,87.79
2018-02-23T01:39:21.574Z,87.79
2018-02-23T01:40:21.457Z,87.89
2018-02-23T01:41:21.446Z,88.55
2018-02-23T01:42:21.292Z,87.98
2018-02-23T01:43:21.213Z,87.89
2018-02-23T01:44:21.144Z,88.17
2018-02-23T01:45:21.064Z,88.55
2018-02-23T01:46:20.951Z,88.27
2018-02-23T01:47:20.888Z,88.65
2018-02-23T01:48:20.792Z,89.31
2018-02-23T01:49:20.730Z,88.55
2018-02-23T01:50:20.632Z,88.27
2018-02-23T01:51:20.543Z,88.36
2018-02-23T01:52:20.437Z,88.65
2018-02-23T01:53:20.373Z,88.84
2018-02-23T01:54:20.310Z,88.93
2018-02-23T01:55:20.205Z,88.27
2018-02-23T01:56:20.102Z,87.98
2018-02-23T01:57:20.054Z,88.46
2018-02-23T01:58:19.988Z,88.55
2018-02-23T01:59:19.867Z,88.60
2018-02-23T02:00:19.797Z,88.69
2018-02-23T02:01:19.712Z,87.65
2018-02-23T02:02:19.602Z,87.84
2018-02-23T02:03:19.529Z,87.18
2018-02-23T02:04:19.433Z,86.61
2018-02-23T02:05:19.392Z,86.61
2018-02-23T02:06:19.278Z,86.90
2018-02-23T02:07:19.203Z,87.37
2018-02-23T02:08:19.129Z,87.74
2018-02-23T02:09:19.028Z,87.46
2018-02-23T02:10:18.951Z,86.90
2018-02-23T02:11:18.965Z,87.18
2018-02-23T02:12:18.755Z,86.42
2018-02-23T02:13:18.694Z,86.42
2018-02-23T02:14:18.591Z,86.90
2018-02-23T02:15:18.536Z,87.18
2018-02-23T02:16:18.425Z,87.18
2018-02-23T02:17:18.344Z,87.93
2018-02-23T02:18:18.253Z,87.84
2018-02-23T02:19:18.174Z,87.46
2018-02-23T02:20:18.102Z,87.27
2018-02-23T02:21:18.015Z,87.27
2018-02-23T02:22:17.932Z,86.99
2018-02-23T02:23:17.844Z,87.74
2018-02-23T02:24:17.744Z,87.55
2018-02-23T02:25:17.673Z,88.03
2018-02-23T02:26:17.588Z,88.69
2018-02-23T02:27:17.506Z,88.03
2018-02-23T02:28:17.457Z,87.93
2018-02-23T02:29:17.331Z,87.08
2018-02-23T02:30:17.262Z,87.08
2018-02-23T02:31:17.254Z,87.27
2018-02-23T02:32:17.064Z,86.99
2018-02-23T02:33:16.998Z,86.61
2018-02-23T02:34:16.899Z,87.27
2018-02-23T02:35:16.836Z,87.27
2018-02-23T02:36:16.779Z,87.27
2018-02-23T02:37:16.662Z,87.37
2018-02-23T02:38:16.557Z,87.74
2018-02-23T02:39:16.500Z,87.84
2018-02-23T02:40:16.407Z,88.79
2018-02-23T02:41:16.335Z,87.55
2018-02-23T02:42:16.237Z,87.74
2018-02-23T02:43:16.164Z,87.55
2018-02-23T02:44:16.050Z,87.74
2018-02-23T02:45:15.981Z,87.55
2018-02-23T02:46:15.884Z,87.65
2018-02-23T02:47:15.850Z,86.80
2018-02-23T02:48:15.715Z,86.71
2018-02-23T02:49:15.647Z,87.18
2018-02-23T02:50:15.549Z,86.90
2018-02-23T02:51:15.482Z,87.84
2018-02-23T02:52:15.399Z,87.37
2018-02-23T02:53:15.299Z,87.55
2018-02-23T02:54:15.236Z,87.55
2018-02-23T02:55:15.137Z,87.84
2018-02-23T02:56:15.047Z,87.74
2018-02-23T02:57:14.962Z,88.12
2018-02-23T02:58:14.932Z,87.84
2018-02-23T02:59:14.826Z,87.55
2018-02-23T03:00:14.715Z,87.65
2018-02-23T03:01:14.699Z,87.55
2018-02-23T03:02:14.536Z,87.27
2018-02-23T03:03:14.483Z,87.55
2018-02-23T03:04:14.371Z,87.65
2018-02-23T03:05:14.299Z,87.65
2018-02-23T03:06:14.204Z,87.27
2018-02-23T03:07:14.122Z,87.37
2018-02-23T03:08:14.068Z,87.46
2018-02-23T03:09:13.956Z,87.46
2018-02-23T03:10:13.862Z,88.12
2018-02-23T03:11:13.788Z,87.84
2018-02-23T03:12:13.693Z,87.84
2018-02-23T03:13:13.635Z,88.03
2018-02-23T03:14:13.523Z,87.74
2018-02-23T03:15:13.463Z,87.55
2018-02-23T03:16:13.354Z,88.03
2018-02-23T03:17:13.285Z,88.41
2018-02-23T03:18:13.228Z,87.70
2018-02-23T03:19:13.134Z,88.46
2018-02-23T03:20:13.025Z,88.69
2018-02-23T03:21:12.972Z,88.65
2018-02-23T03:22:12.844Z,88.41
2018-02-23T03:23:12.774Z,88.69
2018-02-23T03:24:12.699Z,88.55
2018-02-23T03:25:12.610Z,88.46
2018-02-23T03:26:12.516Z,88.98
2018-02-23T03:27:12.438Z,88.65
2018-02-23T03:28:12.348Z,88.65
2018-02-23T03:29:12.290Z,88.93
2018-02-23T03:30:12.177Z,89.12
2018-02-23T03:31:12.126Z,89.12
2018-02-23T03:32:12.006Z,89.12
2018-02-23T03:33:11.932Z,89.22
2018-02-23T03:34:11.854Z,89.03
2018-02-23T03:35:11.770Z,89.22
2018-02-23T03:36:11.664Z,89.59
2018-02-23T03:37:11.586Z,89.69
2018-02-23T03:38:11.508Z,89.69
2018-02-23T03:39:11.440Z,90.35
2018-02-23T03:40:11.346Z,90.16
2018-02-23T03:41:11.286Z,89.87
2018-02-23T03:42:11.159Z,90.16
2018-02-23T03:43:11.085Z,89.69
2018-02-23T03:44:11.019Z,90.63
2018-02-23T03:45:10.922Z,89.97
2018-02-23T03:46:10.825Z,89.97
2018-02-23T03:47:10.752Z,89.78
2018-02-23T03:48:10.706Z,89.59
2018-02-23T03:49:10.600Z,89.50
2018-02-23T03:50:10.505Z,89.78
2018-02-23T03:51:10.422Z,89.78
2018-02-23T03:52:10.314Z,90.25
2018-02-23T03:53:10.241Z,90.16
2018-02-23T03:54:10.159Z,90.06
2018-02-23T03:55:10.088Z,90.44
2018-02-23T03:56:09.984Z,90.54
2018-02-23T03:57:09.904Z,90.73
2018-02-23T03:58:09.817Z,91.01
2018-02-23T03:59:09.753Z,91.10
2018-02-23T04:00:09.662Z,90.54
2018-02-23T04:01:09.568Z,90.16
2018-02-23T04:02:09.467Z,90.06
2018-02-23T04:03:09.398Z,89.31
2018-02-23T04:04:09.312Z,89.69
2018-02-23T04:05:09.266Z,89.69
2018-02-23T04:06:09.138Z,89.31
2018-02-23T04:07:09.064Z,89.31
2018-02-23T04:08:08.997Z,89.50
2018-02-23T04:09:08.898Z,89.59
2018-02-23T04:10:08.796Z,89.78
2018-02-23T04:11:08.745Z,89.22
2018-02-23T04:12:08.632Z,89.50
2018-02-23T04:13:08.550Z,89.87
2018-02-23T04:14:08.452Z,89.50
2018-02-23T04:15:08.405Z,89.50
2018-02-23T04:16:08.305Z,89.50
2018-02-23T04:17:08.224Z,89.50
2018-02-23T04:18:08.212Z,90.25
2018-02-23T04:19:08.052Z,90.16
2018-02-23T04:20:07.985Z,90.35
2018-02-23T04:21:07.998Z,90.35
2018-02-23T04:22:07.777Z,90.44
2018-02-23T04:23:07.706Z,90.25
2018-02-23T04:24:07.606Z,90.16
2018-02-23T04:25:07.536Z,90.25
2018-02-23T04:26:07.462Z,90.35
2018-02-23T04:27:07.374Z,90.16
2018-02-23T04:28:07.312Z,90.44
2018-02-23T04:29:07.210Z,91.20
2018-02-23T04:30:07.111Z,91.01
2018-02-23T04:31:07.044Z,91.20
2018-02-23T04:32:06.937Z,91.01
2018-02-23T04:33:06.862Z,91.01
2018-02-23T04:34:06.768Z,90.82
2018-02-23T04:35:06.700Z,90.91
2018-02-23T04:36:06.628Z,91.48
2018-02-23T04:37:06.545Z,91.20
2018-02-23T04:38:06.597Z,91.86
2018-02-23T04:39:06.356Z,91.86
2018-02-23T04:40:06.258Z,91.72
2018-02-23T04:41:06.187Z,91.96
2018-02-23T04:42:06.105Z,92.33
2018-02-23T04:43:06.019Z,91.67
2018-02-23T04:44:05.916Z,91.86
2018-02-23T04:45:05.841Z,91.86
2018-02-23T04:46:05.746Z,92.05
2018-02-23T04:47:05.692Z,91.96
2018-02-23T04:48:05.580Z,91.86
2018-02-23T04:49:05.516Z,91.67
2018-02-23T04:50:05.417Z,92.52
2018-02-23T04:51:05.337Z,92.24
2018-02-23T04:52:05.259Z,91.48
2018-02-23T04:53:05.174Z,92.10
2018-02-23T04:54:05.085Z,92.61
2018-02-23T04:55:04.996Z,92.47
2018-02-23T04:56:04.903Z,92.99
2018-02-23T04:57:04.848Z,92.24
2018-02-23T04:58:04.737Z,92.52
2018-02-23T04:59:04.652Z,92.61
2018-02-23T05:00:04.567Z,92.61
2018-02-23T05:01:04.481Z,92.61
2018-02-23T05:02:04.414Z,92.43
2018-02-23T05:03:04.342Z,92.61
2018-02-23T05:04:04.221Z,92.43
2018-02-23T05:05:04.149Z,92.61
2018-02-23T05:06:04.052Z,91.86
2018-02-23T05:07:03.994Z,92.80
2018-02-23T05:08:04.003Z,92.33
2018-02-23T05:09:03.840Z,92.33
2018-02-23T05:10:03.709Z,91.96
2018-02-23T05:11:03.646Z,92.05
2018-02-23T05:12:03.584Z,91.67
2018-02-23T05:13:03.491Z,91.48
2018-02-23T05:14:03.382Z,91.48
2018-02-23T05:15:03.317Z,91.39
2018-02-23T05:16:03.204Z,90.82
2018-02-23T05:17:03.137Z,91.39
2018-02-23T05:18:03.060Z,91.29
2018-02-23T05:19:02.960Z,91.39
2018-02-23T05:20:02.869Z,90.82
2018-02-23T05:21:02.800Z,90.25
2018-02-23T05:22:02.701Z,90.25
2018-02-23T05:23:02.639Z,90.44
2018-02-23T05:24:02.585Z,90.73
2018-02-23T05:25:02.461Z,90.54
2018-02-23T05:26:02.391Z,90.91
2018-02-23T05:27:02.288Z,91.01
2018-02-23T05:28:02.330Z,91.39
2018-02-23T05:29:02.114Z,91.39
2018-02-23T05:30:02.021Z,91.20
2018-02-23T05:31:01.942Z,91.48
2018-02-23T05:32:01.851Z,91.48
2018-02-23T05:33:01.802Z,91.29
2018-02-23T05:34:01.685Z,91.20
2018-02-23T05:35:01.610Z,90.54
2018-02-23T05:36:01.512Z,90.54
2018-02-23T05:37:01.429Z,90.54
2018-02-23T05:38:01.358Z,91.39
2018-02-23T05:39:01.291Z,90.25
2018-02-23T05:40:01.177Z,89.97
2018-02-23T05:41:01.124Z,90.44
2018-02-23T05:42:01.001Z,90.44
2018-02-23T05:43:00.935Z,89.69
2018-02-23T05:44:00.832Z,89.87
2018-02-23T05:45:00.776Z,90.16
2018-02-23T05:46:00.676Z,90.16
2018-02-23T05:47:00.613Z,90.82
2018-02-23T05:48:00.501Z,89.87
2018-02-23T05:49:00.519Z,90.16
2018-02-23T05:50:00.329Z,89.87
2018-02-23T05:51:00.391Z,90.35
2018-02-23T05:52:00.151Z,89.50
2018-02-23T05:53:00.142Z,90.25
2018-02-23T05:54:59.939Z,89.59
2018-02-23T05:55:59.832Z,89.31
2018-02-23T05:56:59.745Z,89.31
2018-02-23T05:57:59.662Z,88.46
2018-02-23T05:58:59.579Z,88.65
2018-02-23T05:59:59.490Z,88.55
2018-02-23T06:00:59.406Z,88.93
2018-02-23T06:01:59.303Z,88.46
2018-02-23T06:02:59.234Z,89.03
2018-02-23T06:03:59.143Z,88.36
2018-02-23T06:04:59.088Z,88.55
2018-02-23T06:05:58.972Z,88.36
2018-02-23T06:06:58.902Z,87.89
2018-02-23T06:07:58.814Z,88.08
2018-02-23T06:08:58.728Z,87.89
2018-02-23T06:09:58.668Z,87.89
2018-02-23T06:10:58.557Z,87.42
2018-02-23T06:11:58.467Z,87.70
2018-02-23T06:12:58.384Z,86.38
2018-02-23T06:13:58.302Z,87.18
2018-02-23T06:14:58.289Z,86.23
2018-02-23T06:15:58.136Z,85.19
2018-02-23T06:16:58.050Z,84.81
2018-02-23T06:17:58.084Z,84.16
2018-02-23T06:18:57.885Z,84.16
2018-02-23T06:19:57.794Z,84.44
2018-02-23T06:20:57.739Z,85.38
2018-02-23T06:21:57.617Z,85.19
2018-02-23T06:22:57.534Z,84.53
2018-02-23T06:23:57.446Z,84.53
2018-02-23T06:24:57.376Z,84.25
2018-02-23T06:25:57.287Z,83.97
2018-02-23T06:26:57.203Z,83.59
2018-02-23T06:27:57.770Z,84.06
2018-02-23T06:28:57.057Z,84.34
2018-02-23T06:29:56.943Z,84.06
2018-02-23T06:30:56.881Z,83.49
2018-02-23T06:31:56.776Z,84.01
2018-02-23T06:32:56.700Z,84.49
2018-02-23T06:33:56.602Z,84.39
2018-02-23T06:34:56.528Z,84.63
2018-02-23T06:35:56.474Z,84.58
2018-02-23T06:36:56.361Z,85.34
2018-02-23T06:37:56.256Z,84.91
2018-02-23T06:38:56.190Z,85.05
2018-02-23T06:39:56.099Z,84.49
2018-02-23T06:40:56.029Z,85.28
2018-02-23T06:41:55.940Z,85.05
2018-02-23T06:42:55.846Z,84.49
2018-02-23T06:43:55.769Z,85.05
2018-02-23T06:44:55.726Z,84.86
2018-02-23T06:45:55.597Z,85.15
2018-02-23T06:46:55.544Z,84.86
2018-02-23T06:47:55.514Z,84.77
2018-02-23T06:48:55.344Z,85.34
2018-02-23T06:49:55.242Z,85.15
2018-02-23T06:50:55.181Z,85.53
2018-02-23T06:51:55.106Z,86.19
2018-02-23T06:52:55.015Z,86.10
2018-02-23T06:53:54.912Z,86.00
2018-02-23T06:54:54.837Z,85.81
2018-02-23T06:55:54.738Z,85.81
2018-02-23T06:56:54.680Z,86.29
2018-02-23T06:57:54.591Z,86.29
2018-02-23T06:58:54.502Z,86.66
2018-02-23T06:59:54.404Z,86.85
2018-02-23T07:00:54.323Z,87.13
2018-02-23T07:01:54.290Z,86.29
2018-02-23T07:02:54.165Z,85.91
2018-02-23T07:03:54.081Z,86.10
2018-02-23T07:04:54.097Z,86.00
2018-02-23T07:05:53.892Z,86.38
2018-02-23T07:06:53.870Z,86.10
2018-02-23T07:07:53.739Z,86.29
2018-02-23T07:08:53.659Z,86.00
2018-02-23T07:09:53.561Z,85.62
2018-02-23T07:10:53.504Z,85.34
2018-02-23T07:11:53.391Z,85.62
2018-02-23T07:12:53.338Z,86.04
2018-02-23T07:13:53.214Z,85.24
2018-02-23T07:14:53.204Z,84.63
2018-02-23T07:15:53.055Z,84.44
2018-02-23T07:16:53.025Z,84.34
2018-02-23T07:17:53.041Z,83.59
2018-02-23T07:18:52.927Z,84.34
2018-02-23T07:19:52.744Z,83.87
2018-02-23T07:20:52.828Z,83.02
2018-02-23T07:21:52.538Z,83.02
2018-02-23T07:22:52.491Z,83.30
2018-02-23T07:23:52.393Z,83.02
2018-02-23T07:24:52.317Z,81.79
2018-02-23T07:25:52.220Z,81.51
2018-02-23T07:26:52.137Z,81.32
2018-02-23T07:27:52.061Z,80.56
2018-02-23T07:28:51.991Z,80.27
2018-02-23T07:29:51.866Z,79.33
2018-02-23T07:30:51.815Z,79.43
2018-02-23T07:31:51.745Z,79.75
2018-02-23T07:32:51.648Z,78.67
2018-02-23T07:33:51.526Z,78.48
2018-02-23T07:34:51.563Z,78.58
2018-02-23T07:35:51.361Z,79.52
2018-02-23T07:36:51.289Z,78.58
2018-02-23T07:37:51.217Z,77.91
2018-02-23T07:38:51.165Z,77.91
2018-02-23T07:39:51.055Z,78.29
2018-02-23T07:40:50.951Z,78.58
2018-02-23T07:41:50.865Z,78.10
2018-02-23T07:42:50.779Z,77.91
2018-02-23T07:43:50.742Z,77.06
2018-02-23T07:44:50.615Z,77.53
2018-02-23T07:45:50.528Z,77.53
2018-02-23T07:46:50.562Z,77.82
2018-02-23T07:47:50.350Z,77.63
2018-02-23T07:48:50.393Z,76.78
2018-02-23T07:49:50.193Z,77.15
2018-02-23T07:50:50.169Z,76.68
2018-02-23T07:51:50.022Z,75.55
2018-02-23T07:52:49.982Z,76.53
2018-02-23T07:53:49.883Z,74.74
2018-02-23T07:54:49.892Z,73.79
2018-02-23T07:55:49.683Z,74.26
2018-02-23T07:56:49.702Z,73.98
2018-02-23T07:57:49.512Z,72.50
2018-02-23T07:58:49.564Z,70.83
2018-02-23T07:59:49.354Z,67.65
2018-02-23T08:00:49.305Z,64.27
2018-02-23T08:01:49.196Z,61.65
2018-02-23T08:02:49.234Z,59.97
2018-02-23T08:03:49.006Z,57.69
2018-02-23T08:04:49.070Z,56.55
2018-02-23T08:05:48.841Z,55.98
2018-02-23T08:07:48.689Z,54.68
2018-02-23T08:08:48.654Z,54.05
2018-02-23T08:09:48.512Z,52.91
2018-02-23T08:10:48.483Z,51.48
2018-02-23T08:11:48.363Z,51.64
2018-02-23T08:12:48.372Z,52.14
2018-02-23T08:13:48.199Z,51.60
2018-02-23T08:14:48.189Z,49.79
2018-02-23T08:15:48.033Z,49.84
2018-02-23T08:16:47.989Z,51.01
2018-02-23T08:17:47.866Z,51.01
2018-02-23T08:18:47.891Z,49.68
2018-02-23T08:19:47.691Z,50.60
2018-02-23T08:20:47.732Z,51.03
2018-02-23T08:21:47.533Z,49.04
2018-02-23T08:22:47.504Z,48.46
2018-02-23T08:23:47.375Z,48.89
2018-02-23T08:24:47.464Z,49.74
2018-02-23T08:25:47.205Z,50.95
2018-02-23T08:26:47.234Z,52.45
2018-02-23T08:27:47.058Z,54.06
2018-02-23T08:28:47.042Z,53.77
2018-02-23T08:29:46.895Z,54.56
2018-02-23T08:30:46.853Z,53.14
2018-02-23T08:31:46.748Z,52.45
2018-02-23T08:32:46.763Z,52.47
2018-02-23T08:33:46.566Z,52.19
2018-02-23T08:34:46.608Z,50.81
2018-02-23T08:35:46.394Z,49.22
2018-02-23T08:36:46.347Z,47.99
2018-02-23T08:37:46.246Z,47.30
2018-02-23T08:38:46.297Z,47.73
2018-02-23T08:39:46.089Z,46.70
2018-02-23T08:40:46.120Z,45.49
2018-02-23T08:41:45.945Z,43.71
2018-02-23T08:42:45.952Z,42.64
2018-02-23T08:43:45.765Z,42.71
2018-02-23T08:44:45.918Z,42.85
2018-02-23T08:45:45.619Z,42.30
2018-02-23T08:46:45.621Z,41.11
2018-02-23T08:47:45.437Z,42.25
2018-02-23T08:48:45.365Z,42.14
2018-02-23T08:49:45.302Z,42.07
2018-02-23T08:50:45.290Z,41.97
2018-02-23T08:51:45.135Z,41.21
2018-02-23T08:52:45.187Z,41.49
2018-02-23T08:53:44.974Z,40.35
2018-02-23T08:54:44.961Z,40.47
2018-02-23T08:55:44.864Z,39.86
2018-02-23T08:56:44.766Z,40.75
2018-02-23T08:57:44.680Z,39.78
2018-02-23T08:58:44.681Z,39.69
2018-02-23T08:59:44.506Z,39.97
2018-02-23T09:00:44.480Z,39.50
2018-02-23T09:01:44.327Z,39.50
2018-02-23T09:02:44.334Z,39.69
2018-02-23T09:03:44.286Z,38.95
2018-02-23T09:04:44.200Z,38.01
2018-02-23T09:05:44.054Z,37.36
2018-02-23T09:06:44.023Z,36.12
2018-02-23T09:07:43.878Z,35.91
2018-02-23T09:08:43.831Z,36.64
2018-02-23T09:09:43.723Z,36.85
2018-02-23T09:10:43.773Z,36.79
2018-02-23T09:11:43.557Z,36.71
2018-02-23T09:12:43.542Z,35.66
2018-02-23T09:13:43.446Z,34.71
2018-02-23T09:14:43.362Z,34.54
2018-02-23T09:15:43.245Z,33.58
2018-02-23T09:17:43.091Z,33.07
2018-02-23T09:18:43.068Z,34.58
2018-02-23T09:19:42.938Z,34.72
2018-02-23T09:20:43.001Z,36.72
2018-02-23T09:21:42.793Z,38.05
2018-02-23T09:22:42.790Z,37.80
2018-02-23T09:23:42.632Z,37.30
2018-02-23T09:24:42.631Z,36.76
2018-02-23T09:25:42.465Z,36.96
2018-02-23T09:26:42.498Z,36.22
2018-02-23T09:27:42.306Z,34.79
2018-02-23T09:28:42.348Z,34.52
2018-02-23T09:29:42.155Z,33.39
2018-02-23T09:30:42.123Z,32.87
2018-02-23T09:31:41.995Z,34.51
2018-02-23T09:32:42.029Z,37.29
2018-02-23T09:33:41.853Z,37.38
2018-02-23T09:34:41.833Z,37.04
2018-02-23T09:35:41.679Z,36.39
2018-02-23T09:36:41.653Z,35.72
2018-02-23T09:37:41.552Z,34.58
2018-02-23T09:38:41.592Z,34.55
2018-02-23T09:39:41.446Z,35.60
2018-02-23T09:40:41.378Z,35.60
2018-02-23T09:41:41.211Z,35.96
2018-02-23T09:42:41.327Z,36.41
2018-02-23T09:43:41.081Z,37.18
2018-02-23T09:44:41.107Z,37.67
2018-02-23T09:45:40.911Z,37.30
2018-02-23T09:46:40.892Z,36.83
2018-02-23T09:47:40.758Z,36.74
2018-02-23T09:48:40.752Z,36.37
2018-02-23T09:49:40.625Z,35.23
2018-02-23T09:50:40.621Z,35.06
2018-02-23T09:51:40.836Z,34.30
2018-02-23T09:52:40.774Z,33.82
2018-02-23T09:53:40.301Z,33.72
2018-02-23T09:54:40.976Z,33.53
2018-02-23T09:55:40.132Z,33.44
2018-02-23T09:56:40.154Z,32.98
2018-02-23T09:57:40.830Z,32.48
2018-02-23T09:58:39.948Z,33.15
2018-02-23T09:59:39.857Z,33.29
2018-02-23T10:00:39.823Z,34.55
2018-02-23T10:01:39.656Z,34.74
2018-02-23T10:02:39.638Z,34.64
2018-02-23T10:03:39.510Z,34.56
2018-02-23T10:04:39.538Z,35.35
2018-02-23T10:05:39.374Z,34.77
2018-02-23T10:06:39.385Z,34.30
2018-02-23T10:07:39.187Z,33.74
2018-02-23T10:08:39.199Z,33.45
2018-02-23T10:09:39.067Z,32.96
2018-02-23T10:10:39.012Z,32.88
2018-02-23T10:11:38.886Z,32.58
2018-02-23T10:13:38.814Z,33.25
2018-02-23T10:14:38.730Z,32.98
2018-02-23T10:15:38.660Z,32.29
2018-02-23T10:16:38.539Z,32.28
2018-02-23T10:17:38.432Z,33.04
2018-02-23T10:18:38.450Z,33.50
2018-02-23T10:19:38.257Z,34.55
2018-02-23T10:20:38.295Z,34.56
2018-02-23T10:21:38.106Z,34.67
2018-02-23T10:22:38.162Z,34.38
2018-02-23T10:23:37.982Z,34.39
2018-02-23T10:24:37.973Z,33.61
2018-02-23T10:25:37.810Z,34.15
2018-02-23T10:26:37.808Z,35.10
2018-02-23T10:27:37.641Z,35.67
2018-02-23T10:30:19.779Z,35.42
2018-02-23T10:31:19.725Z,35.89
2018-02-23T10:32:19.579Z,34.56
2018-02-23T10:33:19.597Z,34.05
2018-02-23T10:34:19.431Z,34.63
2018-02-23T10:35:19.438Z,35.04
2018-02-23T10:36:19.297Z,34.39
2018-02-23T10:37:19.354Z,33.44
2018-02-23T10:38:19.121Z,33.17
2018-02-23T10:39:19.118Z,32.31
2018-02-23T10:40:18.965Z,32.29
2018-02-23T10:41:19.004Z,32.95
2018-02-23T10:42:18.877Z,34.24
2018-02-23T10:43:18.863Z,35.48
2018-02-23T10:44:18.673Z,35.50
2018-02-23T10:45:18.672Z,35.12
2018-02-23T10:46:18.596Z,34.75
2018-02-23T10:47:18.460Z,34.18
2018-02-23T10:48:18.459Z,33.40
2018-02-23T10:49:18.448Z,33.33
2018-02-23T10:50:18.185Z,33.33
2018-02-23T10:51:18.307Z,34.03
2018-02-23T10:52:18.066Z,35.21
2018-02-23T10:53:18.088Z,35.86
2018-02-23T10:54:17.891Z,36.07
2018-02-23T10:56:17.778Z,34.38
2018-02-23T10:57:17.733Z,33.90
2018-02-23T10:58:17.573Z,34.20
2018-02-23T10:59:17.621Z,33.36
2018-02-23T11:00:17.443Z,33.45
2018-02-23T11:01:17.447Z,33.45
2018-02-23T11:02:17.295Z,33.64
2018-02-23T11:03:17.257Z,33.12
2018-02-23T11:04:17.111Z,33.97
2018-02-23T11:05:17.150Z,34.26
2018-02-23T11:06:16.955Z,35.12
2018-02-23T11:07:17.845Z,35.10
2018-02-23T11:08:16.860Z,35.04
2018-02-23T11:10:16.714Z,33.93
2018-02-23T11:11:16.589Z,33.00
2018-02-23T11:12:16.496Z,32.01
2018-02-23T11:14:44.772Z,32.75
2018-02-23T11:15:44.771Z,33.72
2018-02-23T11:16:44.607Z,33.88
2018-02-23T11:17:44.560Z,34.34
2018-02-23T11:20:47.289Z,35.58
2018-02-23T11:21:47.266Z,35.88
2018-02-23T11:22:47.133Z,35.00
2018-02-23T11:25:20.687Z,32.81
2018-02-23T11:26:20.789Z,31.96
2018-02-23T11:27:20.513Z,31.31
2018-02-23T11:28:20.468Z,30.91
2018-02-23T11:29:20.353Z,31.72
2018-02-23T11:30:20.422Z,33.12
2018-02-23T11:31:20.203Z,34.26
2018-02-23T11:32:20.194Z,34.30
2018-02-23T11:33:20.047Z,34.48
2018-02-23T11:34:20.100Z,34.28
2018-02-23T11:35:19.938Z,34.11
2018-02-23T11:36:19.932Z,33.64
2018-02-23T11:37:19.743Z,32.98
2018-02-23T11:38:19.747Z,33.45
2018-02-23T11:39:19.598Z,33.44
2018-02-23T11:40:19.678Z,33.61
2018-02-23T11:41:19.450Z,33.82
2018-02-23T11:42:19.446Z,33.25
2018-02-23T11:43:19.309Z,34.56
2018-02-23T11:44:19.244Z,34.64
2018-02-23T11:45:19.138Z,35.52
2018-02-23T11:46:19.286Z,35.02
2018-02-23T11:47:18.973Z,35.69
2018-02-23T11:48:18.981Z,36.07
2018-02-23T11:49:18.822Z,35.50
2018-02-23T11:50:18.885Z,35.50
2018-02-23T11:51:18.709Z,35.69
2018-02-23T11:52:18.683Z,35.67
2018-02-23T11:53:18.531Z,36.07
2018-02-23T11:54:18.504Z,35.50
2018-02-23T11:55:18.371Z,35.38
2018-02-23T11:56:18.467Z,36.13
2018-02-23T11:57:18.201Z,36.33
2018-02-23T11:58:18.208Z,35.88
2018-02-23T11:59:18.838Z,35.80
2018-02-23T12:00:18.016Z,34.74
2018-02-23T12:01:17.892Z,35.21
2018-02-23T12:02:18.003Z,35.78
2018-02-23T12:03:17.798Z,35.50
2018-02-23T12:04:17.735Z,35.31
2018-02-23T12:05:17.587Z,34.64
2018-02-23T12:06:17.542Z,34.75
2018-02-23T12:07:17.438Z,34.72
2018-02-23T12:08:17.555Z,35.77
2018-02-23T12:09:17.280Z,36.26
2018-02-23T12:10:17.263Z,36.07
2018-02-23T12:11:17.154Z,35.67
2018-02-23T12:12:17.203Z,36.93
2018-02-23T12:13:17.019Z,36.74
2018-02-23T12:14:16.982Z,36.24
2018-02-23T12:15:16.817Z,36.83
2018-02-23T12:16:16.789Z,37.21
2018-02-23T12:17:16.660Z,36.37
2018-02-23T12:18:16.726Z,36.16
2018-02-23T12:19:16.538Z,36.89
2018-02-23T12:20:16.507Z,37.21
2018-02-23T12:21:16.371Z,36.81
2018-02-23T12:22:16.856Z,36.53
2018-02-23T12:23:16.221Z,36.62
2018-02-23T12:25:58.280Z,38.01
2018-02-23T12:26:58.330Z,38.31
2018-02-23T12:27:58.153Z,39.00
2018-02-23T12:28:58.179Z,38.41
2018-02-23T12:29:57.965Z,39.34
2018-02-23T12:30:58.014Z,39.91
2018-02-23T12:31:57.853Z,40.94
2018-02-23T12:32:57.863Z,40.82
2018-02-23T12:33:57.674Z,41.66
2018-02-23T12:34:57.706Z,43.65
2018-02-23T12:35:57.492Z,44.29
2018-02-23T12:36:57.473Z,45.14
2018-02-23T12:37:57.350Z,46.07
2018-02-23T12:38:57.622Z,46.19
2018-02-23T12:39:57.212Z,46.56
2018-02-23T12:42:39.289Z,46.47
2018-02-23T12:43:39.322Z,46.28
2018-02-23T12:44:39.122Z,46.28
2018-02-23T12:45:39.109Z,46.09
2018-02-23T12:46:38.954Z,46.28
2018-02-23T12:47:38.905Z,46.28
2018-02-23T12:48:38.810Z,45.90
2018-02-23T12:49:38.873Z,46.37
2018-02-23T12:50:38.641Z,46.37
2018-02-23T12:51:38.641Z,46.00
2018-02-23T12:52:38.497Z,46.28
2018-02-23T12:53:38.448Z,46.28
2018-02-23T12:54:38.339Z,46.11
2018-02-23T12:55:38.353Z,46.30
2018-02-23T12:56:38.161Z,45.64
2018-02-23T12:57:38.166Z,45.07
2018-02-23T12:58:37.980Z,45.14
2018-02-23T12:59:37.979Z,45.05
2018-02-23T13:00:37.849Z,45.05
2018-02-23T13:01:37.776Z,45.14
2018-02-23T13:02:37.660Z,45.24
2018-02-23T13:03:37.693Z,45.62
2018-02-23T13:04:37.551Z,45.62
2018-02-23T13:05:37.459Z,46.28
2018-02-23T13:06:37.336Z,46.28
2018-02-23T13:07:37.347Z,46.37